Eurasian Highway — 7JKY — position and weather

sailwx.info

Track history (hours):
 
Tides and Currents Weather Stations Pressure Air Temp Water Temp Dewpoint Dewpoint Depression Visibility Wind Speed Wind Dir Waves Ship Positions

Eurasian Highway

Last reported at 2014-Dec-16 07:33 UTC. Time now 2014-Dec-23 02:17 UTC.
Position N 01°17' E 104°14'.

Length 199 m; draft 9.3 m.

Type: Cargo ship. MMSI: 432839000.

Date/timePositionNaut miles runAvg speedWind from/ knotsBaromVisibWave heightAir tempDewpointWater temp
2014-Dec-16 07:33N 01°17' E 104°14'1515.3
2014-Dec-16 06:33N 01°14' E 103°59'1111.4
2014-Dec-16 05:33N 01°13' E 103°48'5 3.8
2014-Dec-16 04:11N 01°17' E 103°45'0 0.0
2014-Dec-16 03:32N 01°17' E 103°45'0 0.0
2014-Dec-16 01:05N 01°17' E 103°45'0 0.0
2014-Dec-15 23:18N 01°17' E 103°45'2 3.2
2014-Dec-15 22:33N 01°15' E 103°46'8 8.3
2014-Dec-15 21:33N 01°14' E 103°55'1111.4
2014-Dec-15 20:33N 01°16' E 104°06'1110.8
2014-Dec-15 19:32N 01°18' E 104°17'  
2014-Dec-10 20:34N 01°16' E 104°11'1615.9
2014-Dec-10 19:33N 01°13' E 103°56'9 9.4
2014-Dec-10 18:33N 01°15' E 103°47'3 1.4
2014-Dec-10 16:33N 01°17' E 103°45'0 0.0
2014-Dec-10 15:33N 01°17' E 103°45'0 0.0
2014-Dec-10 14:30N 01°17' E 103°45'0 0.0
2014-Dec-10 13:33N 01°17' E 103°45'0 0.0
2014-Dec-10 07:30N 01°17' E 103°45'0 0.0
2014-Dec-10 05:27N 01°17' E 103°45'0 0.0
2014-Dec-10 04:15N 01°17' E 103°45'0 0.0
2014-Dec-10 03:27N 01°17' E 103°45'0 0.1
2014-Dec-10 02:16N 01°17' E 103°45'3 4.6
2014-Dec-10 01:33N 01°14' E 103°47'10 9.2
2014-Dec-10 00:31N 01°14' E 103°56'1515.5
2014-Dec-09 23:33N 01°17' E 104°11'  
Track history (hours):
 
Tides and Currents Weather Stations Pressure Air Temp Water Temp Dewpoint Dewpoint Depression Visibility Wind Speed Wind Dir Waves Ship Positions

Eurasian Highway

Last reported at 2014-Dec-16 07:33 UTC. Time now 2014-Dec-23 02:17 UTC.
Position N 01°17' E 104°14'.

Length 199 m; draft 9.3 m.

Type: Cargo ship. MMSI: 432839000.

Date/timePositionNaut miles runAvg speedWind from/ knotsBaromVisibWave heightAir tempDewpointWater temp
2014-Dec-16 07:33N 01°17' E 104°14'1515.3
2014-Dec-16 06:33N 01°14' E 103°59'1111.4
2014-Dec-16 05:33N 01°13' E 103°48'5 3.8
2014-Dec-16 04:11N 01°17' E 103°45'0 0.0
2014-Dec-16 03:32N 01°17' E 103°45'0 0.0
2014-Dec-16 01:05N 01°17' E 103°45'0 0.0
2014-Dec-15 23:18N 01°17' E 103°45'2 3.2
2014-Dec-15 22:33N 01°15' E 103°46'8 8.3
2014-Dec-15 21:33N 01°14' E 103°55'1111.4
2014-Dec-15 20:33N 01°16' E 104°06'1110.8
2014-Dec-15 19:32N 01°18' E 104°17'  
2014-Dec-10 20:34N 01°16' E 104°11'1615.9
2014-Dec-10 19:33N 01°13' E 103°56'9 9.4
2014-Dec-10 18:33N 01°15' E 103°47'3 1.4
2014-Dec-10 16:33N 01°17' E 103°45'0 0.0
2014-Dec-10 15:33N 01°17' E 103°45'0 0.0
2014-Dec-10 14:30N 01°17' E 103°45'0 0.0
2014-Dec-10 13:33N 01°17' E 103°45'0 0.0
2014-Dec-10 07:30N 01°17' E 103°45'0 0.0
2014-Dec-10 05:27N 01°17' E 103°45'0 0.0
2014-Dec-10 04:15N 01°17' E 103°45'0 0.0
2014-Dec-10 03:27N 01°17' E 103°45'0 0.1
2014-Dec-10 02:16N 01°17' E 103°45'3 4.6
2014-Dec-10 01:33N 01°14' E 103°47'10 9.2
2014-Dec-10 00:31N 01°14' E 103°56'1515.5
2014-Dec-09 23:33N 01°17' E 104°11'  

Dump ship's entire track history